Chartley, Massachusetts
Current Conditions -  °F | °C
As of 6:52 PM on Monday 20 Oct 2014 (Local Time) from KTAN Reporting Station
Clear Clear  
Wind Chill: 51°   Ceiling: Unl
Heat Index: 51°   Visibility: 10mi
Dew Point: 39°   Wind: 5mph
Humidity: 63%   Direction: 210°SSW
Pressure: 30.01"   Gusts: NA
Location:  41.95°N, 71.23°W
Report Text: KTAN 202252Z AUTO 21004KT 10SM CLR 11/04 A3001 RMK AO2 SLP162 T01060039
Loading
Personal Weather Stations






























Interactive Weather Map
Tropical Storm Tracking
New forecast layout! Learn more

10-Day Weather Forecast

Advertisements
Track Severe Weather on mobile